createdAt,value
2018-12-08T00:02:22.348Z,5.67
2018-12-08T00:07:24.754Z,6.67
2018-12-08T00:12:27.365Z,5.23
2018-12-08T00:17:33.056Z,5.80
2018-12-08T00:22:41.842Z,6.50
2018-12-08T00:27:43.814Z,7.30
2018-12-08T00:32:45.797Z,7.20
2018-12-08T00:37:49.115Z,5.80
2018-12-08T00:42:51.223Z,5.67
2018-12-08T00:47:53.428Z,6.37
2018-12-08T00:52:55.852Z,6.80
2018-12-08T00:57:58.467Z,6.57
2018-12-08T01:03:03.399Z,6.80
2018-12-08T01:08:05.935Z,7.67
2018-12-08T01:13:21.391Z,6.10
2018-12-08T01:18:23.450Z,7.80
2018-12-08T01:23:25.262Z,6.87
2018-12-08T01:28:27.255Z,4.53
2018-12-08T01:33:29.874Z,4.40
2018-12-08T01:38:32.096Z,5.97
2018-12-08T01:43:34.100Z,5.90
2018-12-08T01:48:36.281Z,5.00
2018-12-08T01:53:38.411Z,5.70
2018-12-08T01:58:47.092Z,6.00
2018-12-08T02:03:49.014Z,9.23
2018-12-08T02:08:50.934Z,6.23
2018-12-08T02:13:53.052Z,6.00
2018-12-08T02:18:58.456Z,4.90
2018-12-08T02:24:06.921Z,5.40
2018-12-08T02:29:08.798Z,5.77
2018-12-08T02:34:10.949Z,6.83
2018-12-08T02:39:21.059Z,6.20
2018-12-08T02:44:23.179Z,6.00
2018-12-08T02:49:28.591Z,6.87
2018-12-08T02:54:30.708Z,6.70
2018-12-08T02:59:33.245Z,5.63
2018-12-08T03:04:35.587Z,4.43
2018-12-08T03:09:38.093Z,4.80
2018-12-08T03:14:40.212Z,3.73
2018-12-08T03:19:43.162Z,5.30
2018-12-08T03:24:45.074Z,4.83
2018-12-08T03:29:47.001Z,3.50
2018-12-08T03:34:49.527Z,4.03
2018-12-08T03:39:51.643Z,5.77
2018-12-08T03:44:53.762Z,6.13
2018-12-08T03:49:55.904Z,7.30
2018-12-08T03:54:58.117Z,7.17
2018-12-08T04:00:00.457Z,8.60
2018-12-08T04:05:03.209Z,4.97
2018-12-08T04:10:05.577Z,8.13
2018-12-08T04:15:07.782Z,5.67
2018-12-08T04:20:09.967Z,7.33
2018-12-08T04:25:12.296Z,2.10
2018-12-08T04:30:14.889Z,3.03
2018-12-08T04:35:17.052Z,2.90
2018-12-08T04:40:19.754Z,2.10
2018-12-08T04:45:21.649Z,2.77
2018-12-08T04:50:24.195Z,3.77
2018-12-08T04:55:26.487Z,3.53
2018-12-08T05:00:28.590Z,5.67
2018-12-08T05:05:30.474Z,4.20
2018-12-08T05:10:32.270Z,3.70
2018-12-08T05:15:34.456Z,6.80
2018-12-08T05:20:36.611Z,8.20
2018-12-08T05:25:43.058Z,6.20
2018-12-08T05:30:44.976Z,7.77
2018-12-08T05:35:47.132Z,5.50
2018-12-08T05:40:49.457Z,7.73
2018-12-08T05:45:51.217Z,6.37
2018-12-08T05:50:53.690Z,8.73
2018-12-08T05:55:56.171Z,6.80
2018-12-08T06:00:58.070Z,11.23
2018-12-08T06:06:00.262Z,8.13
2018-12-08T06:11:02.267Z,11.43
2018-12-08T06:16:04.888Z,12.60
2018-12-08T06:21:07.305Z,10.23
2018-12-08T06:26:10.545Z,10.10
2018-12-08T06:31:12.762Z,8.83
2018-12-08T06:36:15.365Z,10.57
2018-12-08T06:41:23.217Z,8.20
2018-12-08T06:46:26.139Z,7.43
2018-12-08T06:51:28.554Z,11.80
2018-12-08T06:56:30.969Z,12.27
2018-12-08T07:01:32.780Z,9.77
2018-12-08T07:06:35.390Z,9.93
2018-12-08T07:11:37.401Z,8.17
2018-12-08T07:16:52.165Z,8.90
2018-12-08T07:21:54.492Z,7.90
2018-12-08T07:27:00.389Z,7.70
2018-12-08T07:32:03.374Z,8.27
2018-12-08T07:37:05.563Z,8.90
2018-12-08T07:42:08.977Z,9.63
2018-12-08T07:47:11.072Z,8.40
2018-12-08T07:52:14.395Z,10.60
2018-12-08T07:57:23.956Z,9.30
2018-12-08T08:02:28.190Z,8.80
2018-12-08T08:07:30.607Z,8.27
2018-12-08T08:12:32.806Z,8.37
2018-12-08T08:17:42.382Z,10.07
2018-12-08T08:22:44.698Z,6.03
2018-12-08T08:27:50.547Z,6.33
2018-12-08T08:32:53.528Z,8.40
2018-12-08T08:37:55.473Z,6.67
2018-12-08T08:53:28.940Z,9.30
2018-12-08T08:58:31.469Z,8.10
2018-12-08T09:03:33.611Z,8.27
2018-12-08T09:08:38.835Z,7.07
2018-12-08T09:13:42.018Z,9.57
2018-12-08T09:18:49.504Z,9.37
2018-12-08T09:23:52.411Z,11.13
2018-12-08T09:29:13.176Z,6.07
2018-12-08T09:34:15.744Z,6.93
2018-12-08T09:39:18.159Z,5.90
2018-12-08T09:44:31.114Z,6.70
2018-12-08T09:49:33.635Z,5.30
2018-12-08T09:54:35.514Z,5.13
2018-12-08T09:59:37.643Z,5.10
2018-12-08T10:05:08.014Z,8.27
2018-12-08T10:10:09.825Z,4.63
2018-12-08T10:15:11.732Z,5.93
2018-12-08T10:20:15.311Z,7.43
2018-12-08T10:25:17.733Z,5.83
2018-12-08T10:30:19.571Z,10.13
2018-12-08T10:35:21.715Z,9.47
2018-12-08T10:40:23.793Z,9.20
2018-12-08T10:45:25.813Z,9.20
2018-12-08T10:50:27.928Z,8.70
2018-12-08T10:55:31.141Z,7.70
2018-12-08T11:06:04.148Z,6.90
2018-12-08T11:11:31.666Z,11.23
2018-12-08T11:16:52.251Z,10.97
2018-12-08T11:21:54.877Z,11.57
2018-12-08T11:26:56.800Z,11.60
2018-12-08T11:31:58.800Z,13.80
2018-12-08T11:37:14.577Z,13.30
2018-12-08T11:42:17.077Z,11.30
2018-12-08T11:47:20.685Z,10.57
2018-12-08T11:52:22.570Z,10.60
2018-12-08T11:57:24.478Z,8.57
2018-12-08T12:02:26.591Z,11.77
2018-12-08T12:07:30.485Z,10.23
2018-12-08T12:12:32.566Z,10.70
2018-12-08T12:17:39.658Z,11.10
2018-12-08T12:22:42.957Z,11.23
2018-12-08T12:27:45.556Z,10.90
2018-12-08T12:32:47.469Z,10.40
2018-12-08T12:37:50.736Z,9.33
2018-12-08T12:42:52.565Z,7.93
2018-12-08T12:47:55.125Z,11.27
2018-12-08T12:52:57.146Z,8.43
2018-12-08T12:57:59.508Z,10.73
2018-12-08T13:03:08.281Z,8.67
2018-12-08T13:08:10.629Z,9.40
2018-12-08T13:13:12.636Z,8.50
2018-12-08T13:18:15.337Z,6.37
2018-12-08T13:23:18.216Z,9.13
2018-12-08T13:33:53.941Z,5.93
2018-12-08T13:38:58.542Z,8.50
2018-12-08T13:44:04.267Z,9.63
2018-12-08T13:49:09.955Z,6.40
2018-12-08T13:54:17.568Z,10.40
2018-12-08T13:59:20.050Z,7.83
2018-12-08T14:04:22.216Z,6.80
2018-12-08T14:09:24.898Z,6.63
2018-12-08T14:14:27.127Z,8.03
2018-12-08T14:19:29.730Z,5.20
2018-12-08T14:24:31.854Z,5.30
2018-12-08T14:29:34.163Z,8.40
2018-12-08T14:34:36.742Z,7.37
2018-12-08T14:39:39.229Z,10.43
2018-12-08T14:44:43.292Z,11.10
2018-12-08T14:49:46.060Z,9.60
2018-12-08T14:54:48.866Z,9.40
2018-12-08T14:59:52.127Z,11.03
2018-12-08T15:04:55.489Z,9.77
2018-12-08T15:09:59.344Z,12.07
2018-12-08T15:15:06.115Z,11.40
2018-12-08T15:20:10.505Z,10.53
2018-12-08T15:25:14.767Z,12.20
2018-12-08T15:30:26.303Z,8.33
2018-12-08T15:35:30.701Z,11.73
2018-12-08T15:40:41.741Z,9.83
2018-12-08T15:45:45.066Z,11.27
2018-12-08T15:50:48.485Z,10.97
2018-12-08T15:55:54.407Z,9.23
2018-12-08T16:00:58.719Z,7.10
2018-12-08T16:06:02.913Z,6.67
2018-12-08T16:11:10.799Z,7.53
2018-12-08T16:16:14.768Z,9.00
2018-12-08T16:21:17.588Z,8.60
2018-12-08T16:26:21.183Z,8.97
2018-12-08T16:31:27.016Z,7.47
2018-12-08T16:36:35.758Z,10.30
2018-12-08T16:41:38.686Z,8.27
2018-12-08T16:46:41.464Z,12.87
2018-12-08T16:51:44.505Z,12.70
2018-12-08T16:56:48.166Z,13.90
2018-12-08T17:01:53.362Z,8.70
2018-12-08T17:06:57.073Z,8.57
2018-12-08T17:12:00.869Z,9.30
2018-12-08T17:17:03.738Z,8.33
2018-12-08T17:22:08.286Z,8.10
2018-12-08T17:27:11.554Z,12.67
2018-12-08T17:32:15.055Z,9.87
2018-12-08T17:37:19.403Z,14.70
2018-12-08T17:42:23.073Z,17.50
2018-12-08T17:47:26.785Z,8.80
2018-12-08T17:52:30.758Z,6.47
2018-12-08T17:57:34.132Z,5.23
2018-12-08T18:02:39.757Z,0.50
2018-12-08T18:07:44.066Z,0.50
2018-12-08T18:12:49.403Z,9.77
2018-12-08T18:17:53.040Z,15.63
2018-12-08T18:22:56.666Z,16.80
2018-12-08T18:28:00.122Z,14.00
2018-12-08T18:33:03.564Z,13.57
2018-12-08T18:38:09.193Z,13.80
2018-12-08T18:43:14.218Z,11.27
2018-12-08T18:48:17.885Z,10.50
2018-12-08T18:53:21.582Z,9.23
2018-12-08T18:58:25.943Z,6.93
2018-12-08T19:03:31.113Z,10.00
2018-12-08T19:08:34.351Z,10.63
2018-12-08T19:13:42.092Z,10.13
2018-12-08T19:18:46.107Z,12.23
2018-12-08T19:23:48.838Z,11.10
2018-12-08T19:28:55.086Z,17.47
2018-12-08T19:33:59.869Z,13.07
2018-12-08T19:39:05.945Z,9.93
2018-12-08T19:44:09.059Z,13.67
2018-12-08T19:49:11.833Z,11.50
2018-12-08T19:54:14.136Z,15.90
2018-12-08T19:59:16.406Z,13.37
2018-12-08T20:04:18.943Z,11.47
2018-12-08T20:09:22.234Z,10.50
2018-12-08T20:14:25.895Z,9.23
2018-12-08T20:19:29.255Z,11.43
2018-12-08T20:30:03.253Z,10.60
2018-12-08T20:35:06.237Z,11.37
2018-12-08T20:40:09.883Z,13.13
2018-12-08T20:45:12.549Z,10.33
2018-12-08T20:50:14.781Z,12.40
2018-12-08T20:55:18.559Z,11.10
2018-12-08T21:00:22.948Z,13.33
2018-12-08T21:05:27.008Z,14.77
2018-12-08T21:10:30.454Z,13.33
2018-12-08T21:15:33.401Z,11.13
2018-12-08T21:20:42.005Z,8.90
2018-12-08T21:25:44.680Z,12.13
2018-12-08T21:30:46.922Z,12.83
2018-12-08T21:35:48.831Z,13.43
2018-12-08T21:40:51.671Z,13.17
2018-12-08T21:45:54.589Z,8.57
2018-12-08T21:50:56.547Z,9.27
2018-12-08T21:55:59.908Z,12.33
2018-12-08T22:01:09.843Z,13.27
2018-12-08T22:06:13.572Z,13.97
2018-12-08T22:11:19.959Z,11.13
2018-12-08T22:16:22.421Z,12.97
2018-12-08T22:21:25.116Z,12.80
2018-12-08T22:26:27.059Z,14.17
2018-12-08T22:31:28.821Z,13.27
2018-12-08T22:36:30.645Z,11.40
2018-12-08T22:41:33.831Z,10.70
2018-12-08T22:46:35.680Z,9.80
2018-12-08T22:51:37.798Z,7.60
2018-12-08T22:56:39.662Z,9.10
2018-12-08T23:01:41.542Z,11.13
2018-12-08T23:06:52.833Z,8.33
2018-12-08T23:12:01.057Z,12.23
2018-12-08T23:17:04.990Z,14.23
2018-12-08T23:22:09.136Z,10.30
2018-12-08T23:27:18.172Z,10.33
2018-12-08T23:37:28.088Z,6.63
2018-12-08T23:42:30.090Z,8.20
2018-12-08T23:47:32.162Z,9.27
2018-12-08T23:52:33.931Z,7.50
2018-12-08T23:57:36.051Z,7.37
